Time;durP1;ratioP1;P1;durP2;ratioP2;P2;SDS_P1;SDS_P2;PMS_P1;PMS_P2;Temp;Humidity;BMP_temperature;BMP_pressure;BME280_temperature;BME280_humidity;BME280_pressure;Samples;Min_cycle;Max_cycle;Signal;HPM_P1;HPM_P2
2021/01/19 00:01:46;;;;;;;;;;;;;;;;;;5060331;28;1544;-76
2021/01/19 00:04:12;;;;;;;;;;;;;;;;;;5067712;28;917;-76
2021/01/19 00:06:46;;;;;;;;;;;;;;;;;;5075350;28;1326;-76
2021/01/19 00:09:11;;;;;;;;;;;;;;;;;;5075462;28;907;-76
2021/01/19 00:11:36;;;;;;;;;;;;;;;;;;5073902;28;897;-76
2021/01/19 00:14:02;;;;;;;;;;;;;;;;;;5071413;28;854;-76
2021/01/19 00:16:27;;;;;;;;;;;;;;;;;;5066120;28;1957;-76
2021/01/19 00:18:52;;;;;;;;;;;;;;;;;;5075018;28;893;-76
2021/01/19 00:21:17;;;;;;;;;;;;;;;;;;5064875;28;1959;-76
2021/01/19 00:23:43;;;;;;;;;;;;;;;;;;5066007;28;1407;-77
2021/01/19 00:26:08;;;;;;;;;;;;;;;;;;5070285;28;1569;-76
2021/01/19 00:28:34;;;;;;;;;;;;;;;;;;5063286;28;1721;-77
2021/01/19 00:31:00;;;;;;;;;;;;;;;;;;5071039;28;1601;-76
2021/01/19 00:33:25;;;;;;;;;;;;;;;;;;5074630;28;868;-76
2021/01/19 00:35:50;;;;;;;;;;;;;;;;;;5073662;28;1901;-76
2021/01/19 00:38:16;;;;;;;;;;;;;;;;;;5074576;28;856;-77
2021/01/19 00:40:41;;;;;;;;;;;;;;;;;;5074722;28;1039;-76
2021/01/19 00:43:06;;;;;;;;;;;;;;;;;;5073858;28;1146;-72
2021/01/19 00:45:31;;;;;;;;;;;;;;;;;;5074670;28;1325;-72
2021/01/19 00:47:57;;;;;;;;;;;;;;;;;;5074901;28;1019;-71
2021/01/19 00:50:22;;;;;;;;;;;;;;;;;;5074266;28;1045;-73
2021/01/19 00:52:47;;;;;;;;;;;;;;;;;;5073355;28;1338;-73
2021/01/19 00:55:13;;;;;;;;;;;;;;;;;;5074682;28;1286;-73
2021/01/19 00:57:39;;;;;;;;;;;;;;;;;;5074645;28;1956;-73
2021/01/19 01:00:05;;;;;;;;;;;;;;;;;;5073254;28;813;-73
2021/01/19 01:02:30;;;;;;;;;;;;;;;;;;5073441;28;1200;-73
2021/01/19 01:04:55;;;;;;;;;;;;;;;;;;5056943;28;1456;-73
2021/01/19 01:07:20;;;;;;;;;;;;;;;;;;5073341;28;1387;-73
2021/01/19 01:09:45;;;;;;;;;;;;;;;;;;5074396;28;891;-73
2021/01/19 01:12:11;;;;;;;;;;;;;;;;;;5073505;28;888;-73
2021/01/19 01:14:36;;;;;;;;;;;;;;;;;;5074213;28;1282;-73
2021/01/19 01:17:02;;;;;;;;;;;;;;;;;;5074186;28;1890;-73
2021/01/19 01:19:27;;;;;;;;;;;;;;;;;;5074493;28;813;-73
2021/01/19 01:21:52;;;;;;;;;;;;;;;;;;5073947;28;916;-73
2021/01/19 01:24:18;;;;;;;;;;;;;;;;;;5074334;28;868;-73
2021/01/19 01:26:43;;;;;;;;;;;;;;;;;;5074442;28;1431;-73
2021/01/19 01:29:08;;;;;;;;;;;;;;;;;;5073131;28;1211;-73
2021/01/19 01:31:34;;;;;;;;;;;;;;;;;;5073964;28;801;-73
2021/01/19 01:33:59;;;;;;;;;;;;;;;;;;5074474;28;852;-73
2021/01/19 01:36:24;;;;;;;;;;;;;;;;;;5074095;28;1898;-73
2021/01/19 01:38:50;;;;;;;;;;;;;;;;;;5073950;28;848;-73
2021/01/19 01:41:19;;;;;;;;;;;;;;;;;;5074212;28;979;-73
2021/01/19 01:43:45;;;;;;;;;;;;;;;;;;5072922;28;947;-73
2021/01/19 01:46:14;;;;;;;;;;;;;;;;;;5076814;28;1289;-73
2021/01/19 01:48:40;;;;;;;;;;;;;;;;;;5077923;28;912;-73
2021/01/19 01:51:05;;;;;;;;;;;;;;;;;;5077830;28;920;-73
2021/01/19 01:53:31;;;;;;;;;;;;;;;;;;5076713;28;1478;-73
2021/01/19 01:55:56;;;;;;;;;;;;;;;;;;5077876;28;1893;-73
2021/01/19 01:58:22;;;;;;;;;;;;;;;;;;5077955;28;911;-73
2021/01/19 02:00:49;;;;;;;;;;;;;;;;;;5076129;28;1200;-73
2021/01/19 02:03:14;;;;;;;;;;;;;;;;;;5077776;28;797;-73
2021/01/19 02:05:39;;;;;;;;;;;;;;;;;;5076723;28;1459;-73
2021/01/19 02:08:05;;;;;;;;;;;;;;;;;;5076636;28;1104;-73
2021/01/19 02:10:42;;;;;;;;;;;;;;;;;;5076243;28;956;-73
2021/01/19 02:13:15;;;;;;;;;;;;;;;;;;5077600;28;837;-73
2021/01/19 02:16:02;;;;;;;;;;;;;;;;;;5075908;28;1967;-73
2021/01/19 02:18:30;;;;;;;;;;;;;;;;;;5077530;28;936;-73
2021/01/19 02:21:14;;;;;;;;;;;;;;;;;;5077271;28;901;-73
2021/01/19 02:23:51;;;;;;;;;;;;;;;;;;5075972;28;1162;-73
2021/01/19 02:26:19;;;;;;;;;;;;;;;;;;5076069;28;1389;-73
2021/01/19 02:28:49;;;;;;;;;;;;;;;;;;5075929;28;1335;-73
2021/01/19 02:31:32;;;;;;;;;;;;;;;;;;5077064;28;833;-73
2021/01/19 02:34:16;;;;;;;;;;;;;;;;;;5076958;28;1023;-73
2021/01/19 02:36:46;;;;;;;;;;;;;;;;;;5077101;28;1902;-73
2021/01/19 02:39:14;;;;;;;;;;;;;;;;;;5077105;28;869;-73
2021/01/19 02:41:40;;;;;;;;;;;;;;;;;;5076935;28;900;-73
2021/01/19 02:44:18;;;;;;;;;;;;;;;;;;5076819;28;1004;-73
2021/01/19 02:46:45;;;;;;;;;;;;;;;;;;5076947;28;1408;-73
2021/01/19 02:49:12;;;;;;;;;;;;;;;;;;5076279;28;1366;-73
2021/01/19 02:51:37;;;;;;;;;;;;;;;;;;5075742;28;1348;-73
2021/01/19 02:54:02;;;;;;;;;;;;;;;;;;5076724;28;904;-73
2021/01/19 02:56:41;;;;;;;;;;;;;;;;;;5076133;28;1979;-73
2021/01/19 02:59:10;;;;;;;;;;;;;;;;;;5075415;28;1380;-73
2021/01/19 03:01:38;;;;;;;;;;;;;;;;;;5076474;28;833;-73
2021/01/19 03:04:04;;;;;;;;;;;;;;;;;;5076508;28;1057;-72
2021/01/19 03:06:30;;;;;;;;;;;;;;;;;;5075457;28;1392;-73
2021/01/19 03:08:57;;;;;;;;;;;;;;;;;;5076584;28;996;-72
2021/01/19 03:11:22;;;;;;;;;;;;;;;;;;5076220;28;817;-72
2021/01/19 03:13:48;;;;;;;;;;;;;;;;;;5076506;28;809;-73
2021/01/19 03:16:14;;;;;;;;;;;;;;;;;;5076099;28;1970;-73
2021/01/19 03:18:44;;;;;;;;;;;;;;;;;;5075393;28;1434;-73
2021/01/19 03:21:09;;;;;;;;;;;;;;;;;;5074878;28;1423;-73
2021/01/19 03:23:35;;;;;;;;;;;;;;;;;;5075139;28;1410;-73
2021/01/19 03:26:01;;;;;;;;;;;;;;;;;;5076119;28;1326;-73
2021/01/19 03:28:26;;;;;;;;;;;;;;;;;;5076093;28;905;-73
2021/01/19 03:30:52;;;;;;;;;;;;;;;;;;5075952;28;912;-73
2021/01/19 03:33:17;;;;;;;;;;;;;;;;;;5076075;28;920;-73
2021/01/19 03:35:42;;;;;;;;;;;;;;;;;;5076023;28;1901;-73
2021/01/19 03:38:08;;;;;;;;;;;;;;;;;;5076052;28;920;-73
2021/01/19 03:40:33;;;;;;;;;;;;;;;;;;5074460;28;1375;-73
2021/01/19 03:42:59;;;;;;;;;;;;;;;;;;5075819;28;1375;-72
2021/01/19 03:45:24;;;;;;;;;;;;;;;;;;5074461;28;1718;-73
2021/01/19 03:47:49;;;;;;;;;;;;;;;;;;5075688;28;931;-73
2021/01/19 03:50:14;;;;;;;;;;;;;;;;;;5075404;28;988;-74
2021/01/19 03:52:40;;;;;;;;;;;;;;;;;;5074486;28;1318;-73
2021/01/19 03:55:05;;;;;;;;;;;;;;;;;;5074594;28;1282;-72
2021/01/19 03:57:30;;;;;;;;;;;;;;;;;;5075524;28;1903;-73
2021/01/19 03:59:56;;;;;;;;;;;;;;;;;;5075350;28;956;-73
2021/01/19 04:02:21;;;;;;;;;;;;;;;;;;5075623;28;976;-73
2021/01/19 04:04:48;;;;;;;;;;;;;;;;;;5075496;28;1416;-73
2021/01/19 04:07:13;;;;;;;;;;;;;;;;;;5074994;28;873;-73
2021/01/19 04:09:38;;;;;;;;;;;;;;;;;;5074911;28;876;-73
2021/01/19 04:12:04;;;;;;;;;;;;;;;;;;5075110;28;951;-73
2021/01/19 04:14:29;;;;;;;;;;;;;;;;;;5074225;28;1278;-73
2021/01/19 04:16:54;;;;;;;;;;;;;;;;;;5075011;28;1893;-73
2021/01/19 04:19:19;;;;;;;;;;;;;;;;;;5075133;28;884;-73
2021/01/19 04:21:45;;;;;;;;;;;;;;;;;;5074743;28;1187;-73
2021/01/19 04:24:10;;;;;;;;;;;;;;;;;;5075134;28;941;-73
2021/01/19 04:26:35;;;;;;;;;;;;;;;;;;5075261;28;1333;-73
2021/01/19 04:29:00;;;;;;;;;;;;;;;;;;5073856;28;1213;-73
2021/01/19 04:31:26;;;;;;;;;;;;;;;;;;5073370;28;893;-73
2021/01/19 04:33:51;;;;;;;;;;;;;;;;;;5074874;28;949;-73
2021/01/19 04:36:16;;;;;;;;;;;;;;;;;;5073495;28;1957;-73
2021/01/19 04:38:41;;;;;;;;;;;;;;;;;;5074936;28;897;-74
2021/01/19 04:41:08;;;;;;;;;;;;;;;;;;5074826;28;876;-73
2021/01/19 04:43:33;;;;;;;;;;;;;;;;;;5074596;28;869;-73
2021/01/19 04:46:01;;;;;;;;;;;;;;;;;;5074727;28;1401;-74
2021/01/19 04:48:27;;;;;;;;;;;;;;;;;;5074677;28;919;-73
2021/01/19 04:50:52;;;;;;;;;;;;;;;;;;5074594;28;825;-74
2021/01/19 04:53:18;;;;;;;;;;;;;;;;;;5073718;28;1334;-73
2021/01/19 04:55:52;;;;;;;;;;;;;;;;;;5074699;28;1341;-73
2021/01/19 04:58:21;;;;;;;;;;;;;;;;;;5074472;28;798;-72
2021/01/19 05:00:56;;;;;;;;;;;;;;;;;;5073071;28;1496;-73
2021/01/19 05:03:24;;;;;;;;;;;;;;;;;;5074675;28;904;-74
2021/01/19 05:06:08;;;;;;;;;;;;;;;;;;5074493;28;1400;-73
2021/01/19 05:08:42;;;;;;;;;;;;;;;;;;5074531;28;805;-73
2021/01/19 05:11:11;;;;;;;;;;;;;;;;;;5073051;28;1483;-73
2021/01/19 05:13:36;;;;;;;;;;;;;;;;;;5073264;28;1194;-73
2021/01/19 05:16:01;;;;;;;;;;;;;;;;;;5074280;28;1952;-73
2021/01/19 05:18:27;;;;;;;;;;;;;;;;;;5074537;28;837;-73
2021/01/19 05:20:52;;;;;;;;;;;;;;;;;;5078218;28;912;-72
2021/01/19 05:23:24;;;;;;;;;;;;;;;;;;5077590;28;857;-73
2021/01/19 05:25:56;;;;;;;;;;;;;;;;;;5077095;28;1385;-73
2021/01/19 05:28:36;;;;;;;;;;;;;;;;;;5078379;28;837;-73
2021/01/19 05:31:05;;;;;;;;;;;;;;;;;;5078240;28;860;-73
2021/01/19 05:33:31;;;;;;;;;;;;;;;;;;5078455;28;904;-73
2021/01/19 05:36:14;;;;;;;;;;;;;;;;;;5076985;28;1905;-73
2021/01/19 05:38:47;;;;;;;;;;;;;;;;;;5076946;28;1297;-73
2021/01/19 05:41:24;;;;;;;;;;;;;;;;;;5078147;28;1641;-72
2021/01/19 05:43:53;;;;;;;;;;;;;;;;;;5076978;28;1458;-72
2021/01/19 05:46:23;;;;;;;;;;;;;;;;;;5076747;28;2317;-72
2021/01/19 05:48:52;;;;;;;;;;;;;;;;;;5077842;28;936;-73
2021/01/19 05:51:18;;;;;;;;;;;;;;;;;;5077852;28;1264;-72
2021/01/19 05:53:49;;;;;;;;;;;;;;;;;;5077929;28;1015;-72
2021/01/19 05:56:20;;;;;;;;;;;;;;;;;;5077529;28;1973;-72
2021/01/19 05:58:47;;;;;;;;;;;;;;;;;;5077892;28;999;-72
2021/01/19 06:01:16;;;;;;;;;;;;;;;;;;5077617;28;889;-72
2021/01/19 06:03:50;;;;;;;;;;;;;;;;;;5077890;28;960;-73
2021/01/19 06:06:16;;;;;;;;;;;;;;;;;;5076546;28;1381;-73
2021/01/19 06:08:42;;;;;;;;;;;;;;;;;;5077749;28;1143;-73
2021/01/19 06:11:08;;;;;;;;;;;;;;;;;;5077238;28;983;-72
2021/01/19 06:13:33;;;;;;;;;;;;;;;;;;5076312;28;1198;-72
2021/01/19 06:16:06;;;;;;;;;;;;;;;;;;5077205;28;1893;-72
2021/01/19 06:18:35;;;;;;;;;;;;;;;;;;5076568;28;1082;-73
2021/01/19 06:21:01;;;;;;;;;;;;;;;;;;5075881;28;1197;-72
2021/01/19 06:23:26;;;;;;;;;;;;;;;;;;5077390;28;860;-73
2021/01/19 06:25:52;;;;;;;;;;;;;;;;;;5077261;28;1388;-73
2021/01/19 06:28:17;;;;;;;;;;;;;;;;;;5077316;28;916;-72
2021/01/19 06:30:42;;;;;;;;;;;;;;;;;;5076406;28;908;-72
2021/01/19 06:33:09;;;;;;;;;;;;;;;;;;5077388;28;1035;-73
2021/01/19 06:35:40;;;;;;;;;;;;;;;;;;5077144;28;1416;-73
2021/01/19 06:38:07;;;;;;;;;;;;;;;;;;5076849;28;1893;-73
2021/01/19 06:40:34;;;;;;;;;;;;;;;;;;5075728;28;1568;-73
2021/01/19 06:43:02;;;;;;;;;;;;;;;;;;5077083;28;928;-72
2021/01/19 06:45:27;;;;;;;;;;;;;;;;;;5076958;28;1412;-73
2021/01/19 06:47:53;;;;;;;;;;;;;;;;;;5076765;28;956;-73
2021/01/19 06:50:20;;;;;;;;;;;;;;;;;;5075568;28;908;-73
2021/01/19 06:52:53;;;;;;;;;;;;;;;;;;5076894;28;888;-73
2021/01/19 06:55:22;;;;;;;;;;;;;;;;;;5075548;28;1305;-73
2021/01/19 06:58:07;;;;;;;;;;;;;;;;;;5076567;28;1965;-73
2021/01/19 07:00:40;;;;;;;;;;;;;;;;;;5075301;28;1171;-72
2021/01/19 07:03:19;;;;;;;;;;;;;;;;;;5077000;28;865;-72
2021/01/19 07:05:51;;;;;;;;;;;;;;;;;;5076563;28;1416;-73
2021/01/19 07:08:19;;;;;;;;;;;;;;;;;;5076360;28;789;-73
2021/01/19 07:10:51;;;;;;;;;;;;;;;;;;5076453;28;984;-72
2021/01/19 07:13:21;;;;;;;;;;;;;;;;;;5075311;28;1261;-73
2021/01/19 07:16:06;;;;;;;;;;;;;;;;;;5076074;28;1310;-73
2021/01/19 07:18:50;;;;;;;;;;;;;;;;;;5076720;28;857;-72
2021/01/19 07:21:16;;;;;;;;;;;;;;;;;;5076300;28;829;-72
2021/01/19 07:23:44;;;;;;;;;;;;;;;;;;5075226;28;836;-73
2021/01/19 07:26:10;;;;;;;;;;;;;;;;;;5076272;28;1361;-72
2021/01/19 07:28:35;;;;;;;;;;;;;;;;;;5074733;28;1186;-73
2021/01/19 07:31:01;;;;;;;;;;;;;;;;;;5075971;28;963;-73
2021/01/19 07:33:28;;;;;;;;;;;;;;;;;;5076296;28;864;-72
2021/01/19 07:35:53;;;;;;;;;;;;;;;;;;5075771;28;1894;-72
2021/01/19 07:38:23;;;;;;;;;;;;;;;;;;5074869;28;1582;-72
2021/01/19 07:40:48;;;;;;;;;;;;;;;;;;5075777;28;884;-73
2021/01/19 07:43:14;;;;;;;;;;;;;;;;;;5074854;28;871;-73
2021/01/19 07:45:48;;;;;;;;;;;;;;;;;;5075919;28;1325;-72
2021/01/19 07:48:13;;;;;;;;;;;;;;;;;;5075649;28;892;-73
2021/01/19 07:50:40;;;;;;;;;;;;;;;;;;5075652;28;813;-73
2021/01/19 07:53:06;;;;;;;;;;;;;;;;;;5075794;28;813;-73
2021/01/19 07:55:40;;;;;;;;;;;;;;;;;;5075569;28;1389;-73
2021/01/19 07:58:12;;;;;;;;;;;;;;;;;;5075703;28;1957;-73
2021/01/19 08:00:38;;;;;;;;;;;;;;;;;;5075255;28;952;-73
2021/01/19 08:03:04;;;;;;;;;;;;;;;;;;5075544;28;876;-73
2021/01/19 08:05:30;;;;;;;;;;;;;;;;;;5075407;28;1357;-74
2021/01/19 08:07:56;;;;;;;;;;;;;;;;;;5073884;28;1333;-73
2021/01/19 08:10:23;;;;;;;;;;;;;;;;;;5075328;28;853;-72
2021/01/19 08:12:50;;;;;;;;;;;;;;;;;;5075481;28;813;-73
2021/01/19 08:15:19;;;;;;;;;;;;;;;;;;5075237;28;1342;-73
2021/01/19 08:17:48;;;;;;;;;;;;;;;;;;5073822;28;1969;-73
2021/01/19 08:20:21;;;;;;;;;;;;;;;;;;5075073;28;888;-72
2021/01/19 08:22:47;;;;;;;;;;;;;;;;;;5073669;28;1308;-73
2021/01/19 08:25:21;;;;;;;;;;;;;;;;;;5075007;28;1322;-73
2021/01/19 08:27:47;;;;;;;;;;;;;;;;;;5075158;28;956;-73
2021/01/19 08:30:25;;;;;;;;;;;;;;;;;;5074917;28;888;-73
2021/01/19 08:32:51;;;;;;;;;;;;;;;;;;5073747;28;1427;-73
2021/01/19 08:35:17;;;;;;;;;;;;;;;;;;5074894;28;1412;-73
2021/01/19 08:37:46;;;;;;;;;;;;;;;;;;5074880;28;1902;-73
2021/01/19 08:40:19;;;;;;;;;;;;;;;;;;5073512;28;1084;-73
2021/01/19 08:42:44;;;;;;;;;;;;;;;;;;5074905;28;872;-73
2021/01/19 08:45:10;;;;;;;;;;;;;;;;;;5074762;28;1337;-73
2021/01/19 08:47:36;;;;;;;;;;;;;;;;;;5074674;28;869;-73
2021/01/19 08:50:01;;;;;;;;;;;;;;;;;;5073232;28;913;-74
2021/01/19 08:52:26;;;;;;;;;;;;;;;;;;5074696;28;821;-73
2021/01/19 08:54:52;;;;;;;;;;;;;;;;;;5074363;28;1298;-74
2021/01/19 08:57:20;;;;;;;;;;;;;;;;;;5074654;28;1969;-74
2021/01/19 08:59:49;;;;;;;;;;;;;;;;;;5074238;28;849;-74
2021/01/19 09:02:14;;;;;;;;;;;;;;;;;;5074664;28;900;-74
2021/01/19 09:04:40;;;;;;;;;;;;;;;;;;5073397;28;1337;-74
2021/01/19 09:07:10;;;;;;;;;;;;;;;;;;5074541;28;869;-73
2021/01/19 09:09:35;;;;;;;;;;;;;;;;;;5073137;28;864;-73
2021/01/19 09:12:00;;;;;;;;;;;;;;;;;;5074363;28;1007;-73
2021/01/19 09:14:26;;;;;;;;;;;;;;;;;;5074506;28;833;-73
2021/01/19 09:16:52;;;;;;;;;;;;;;;;;;5074192;28;1975;-73
2021/01/19 09:19:17;;;;;;;;;;;;;;;;;;5074411;28;912;-72
2021/01/19 09:21:43;;;;;;;;;;;;;;;;;;5074093;28;936;-72
2021/01/19 09:24:15;;;;;;;;;;;;;;;;;;5074434;28;833;-72
2021/01/19 09:26:56;;;;;;;;;;;;;;;;;;5073188;28;1471;-73
2021/01/19 09:29:28;;;;;;;;;;;;;;;;;;5074577;28;848;-75
2021/01/19 09:31:56;;;;;;;;;;;;;;;;;;5073215;28;1139;-75
2021/01/19 09:34:22;;;;;;;;;;;;;;;;;;5072808;28;1182;-75
2021/01/19 09:36:50;;;;;;;;;;;;;;;;;;5074151;28;1898;-74
2021/01/19 09:39:25;;;;;;;;;;;;;;;;;;5072961;28;1215;-74
2021/01/19 09:41:52;;;;;;;;;;;;;;;;;;5074136;28;853;-75
2021/01/19 09:44:18;;;;;;;;;;;;;;;;;;5074256;28;875;-74
2021/01/19 09:46:43;;;;;;;;;;;;;;;;;;5073935;28;1338;-74
2021/01/19 09:49:09;;;;;;;;;;;;;;;;;;5073345;28;1252;-74
2021/01/19 09:51:34;;;;;;;;;;;;;;;;;;5074088;28;893;-74
2021/01/19 09:54:00;;;;;;;;;;;;;;;;;;5073204;28;866;-74
2021/01/19 09:56:26;;;;;;;;;;;;;;;;;;5074043;28;1985;-74
2021/01/19 09:59:01;;;;;;;;;;;;;;;;;;5072312;28;924;-75
2021/01/19 10:01:26;;;;;;;;;;;;;;;;;;5073100;28;904;-74
2021/01/19 10:03:51;;;;;;;;;;;;;;;;;;5073586;28;829;-74
2021/01/19 10:06:20;;;;;;;;;;;;;;;;;;5073705;28;1463;-74
2021/01/19 10:08:50;;;;;;;;;;;;;;;;;;5077054;28;893;-73
2021/01/19 10:11:26;;;;;;;;;;;;;;;;;;5075591;28;920;-73
2021/01/19 10:13:51;;;;;;;;;;;;;;;;;;5076118;28;1507;-74
2021/01/19 10:16:25;;;;;;;;;;;;;;;;;;5076765;28;1898;-74
2021/01/19 10:18:50;;;;;;;;;;;;;;;;;;5076859;28;753;-74
2021/01/19 10:21:26;;;;;;;;;;;;;;;;;;5075857;28;1148;-74
2021/01/19 10:23:51;;;;;;;;;;;;;;;;;;5076889;28;860;-75
2021/01/19 10:26:17;;;;;;;;;;;;;;;;;;5075451;28;1448;-74
2021/01/19 10:28:43;;;;;;;;;;;;;;;;;;5075673;28;786;-72
2021/01/19 10:31:22;;;;;;;;;;;;;;;;;;5076674;28;863;-73
2021/01/19 10:33:58;;;;;;;;;;;;;;;;;;5075477;28;1198;-73
2021/01/19 10:36:28;;;;;;;;;;;;;;;;;;5075158;28;1897;-73
2021/01/19 10:38:53;;;;;;;;;;;;;;;;;;5076790;28;785;-73
2021/01/19 10:41:25;;;;;;;;;;;;;;;;;;5076396;28;1012;-72
2021/01/19 10:43:51;;;;;;;;;;;;;;;;;;5075345;28;853;-72
2021/01/19 10:46:21;;;;;;;;;;;;;;;;;;5075144;28;1389;-72
2021/01/19 10:48:46;;;;;;;;;;;;;;;;;;5076403;28;844;-72
2021/01/19 10:51:11;;;;;;;;;;;;;;;;;;5075343;28;1425;-75
2021/01/19 10:53:41;;;;;;;;;;;;;;;;;;5076460;28;935;-73
2021/01/19 10:56:12;;;;;;;;;;;;;;;;;;5074941;28;1886;-72
2021/01/19 10:58:37;;;;;;;;;;;;;;;;;;5074940;28;1200;-72
2021/01/19 11:01:03;;;;;;;;;;;;;;;;;;5076087;28;964;-73
2021/01/19 11:03:28;;;;;;;;;;;;;;;;;;5074961;28;1178;-74
2021/01/19 11:05:53;;;;;;;;;;;;;;;;;;5076051;28;1309;-73
2021/01/19 11:08:18;;;;;;;;;;;;;;;;;;5076238;28;909;-75
2021/01/19 11:10:44;;;;;;;;;;;;;;;;;;5074604;28;1395;-74
2021/01/19 11:13:09;;;;;;;;;;;;;;;;;;5074576;28;1182;-74
2021/01/19 11:15:34;;;;;;;;;;;;;;;;;;5075873;28;1265;-74
2021/01/19 11:17:59;;;;;;;;;;;;;;;;;;5075556;28;1901;-73
2021/01/19 11:20:25;;;;;;;;;;;;;;;;;;5074891;28;1466;-74
2021/01/19 11:22:50;;;;;;;;;;;;;;;;;;5074477;28;829;-71
2021/01/19 11:25:16;;;;;;;;;;;;;;;;;;5075478;28;1318;-72
2021/01/19 11:27:41;;;;;;;;;;;;;;;;;;5074329;28;900;-73
2021/01/19 11:30:07;;;;;;;;;;;;;;;;;;5075513;28;829;-74
2021/01/19 11:32:32;;;;;;;;;;;;;;;;;;5075613;28;904;-73
2021/01/19 11:34:59;;;;;;;;;;;;;;;;;;5066793;28;2013;-73
2021/01/19 11:37:24;;;;;;;;;;;;;;;;;;5059382;28;1967;-73
2021/01/19 11:39:49;;;;;;;;;;;;;;;;;;5055300;28;951;-70
2021/01/19 11:42:14;;;;;;;;;;;;;;;;;;5055372;28;1116;-70
2021/01/19 11:44:40;;;;;;;;;;;;;;;;;;5053650;28;1309;-72
2021/01/19 11:47:05;;;;;;;;;;;;;;;;;;5054018;28;1308;-71
2021/01/19 11:49:30;;;;;;;;;;;;;;;;;;5055359;28;891;-71
2021/01/19 11:51:55;;;;;;;;;;;;;;;;;;5054122;28;977;-72
2021/01/19 11:54:22;;;;;;;;;;;;;;;;;;5055309;28;849;-70
2021/01/19 11:56:52;;;;;;;;;;;;;;;;;;5054777;28;1890;-70
2021/01/19 11:59:17;;;;;;;;;;;;;;;;;;5053846;28;1699;-70
2021/01/19 12:01:43;;;;;;;;;;;;;;;;;;5054711;28;818;-71
2021/01/19 12:04:09;;;;;;;;;;;;;;;;;;5054981;28;868;-72
2021/01/19 12:06:35;;;;;;;;;;;;;;;;;;5054809;28;1815;-70
2021/01/19 12:09:01;;;;;;;;;;;;;;;;;;5053581;28;1723;-71
2021/01/19 12:11:26;;;;;;;;;;;;;;;;;;5055238;28;1256;-72
2021/01/19 12:13:52;;;;;;;;;;;;;;;;;;5055377;28;900;-70
2021/01/19 12:16:21;;;;;;;;;;;;;;;;;;5053803;28;1898;-72
2021/01/19 12:18:48;;;;;;;;;;;;;;;;;;5054209;28;1268;-74
2021/01/19 12:21:14;;;;;;;;;;;;;;;;;;5060913;28;1531;-73
2021/01/19 12:23:39;;;;;;;;;;;;;;;;;;5073762;28;1372;-73
2021/01/19 12:26:04;;;;;;;;;;;;;;;;;;5074963;28;1373;-74
2021/01/19 12:28:29;;;;;;;;;;;;;;;;;;5074650;28;901;-71
2021/01/19 12:30:55;;;;;;;;;;;;;;;;;;5065939;28;1383;-72
2021/01/19 12:33:20;;;;;;;;;;;;;;;;;;5062103;28;1331;-73
2021/01/19 12:35:46;;;;;;;;;;;;;;;;;;5064663;28;1626;-73
2021/01/19 12:38:11;;;;;;;;;;;;;;;;;;5063026;28;1949;-71
2021/01/19 12:40:37;;;;;;;;;;;;;;;;;;5073115;28;1218;-72
2021/01/19 12:43:02;;;;;;;;;;;;;;;;;;5074853;28;849;-73
2021/01/19 12:45:27;;;;;;;;;;;;;;;;;;5073152;28;1383;-72
2021/01/19 12:47:52;;;;;;;;;;;;;;;;;;5075176;28;864;-72
2021/01/19 12:50:18;;;;;;;;;;;;;;;;;;5073408;28;908;-72
2021/01/19 12:52:43;;;;;;;;;;;;;;;;;;5074677;28;888;-73
2021/01/19 12:55:09;;;;;;;;;;;;;;;;;;5074602;28;1424;-71
2021/01/19 12:57:34;;;;;;;;;;;;;;;;;;5074616;28;1965;-75
2021/01/19 12:59:59;;;;;;;;;;;;;;;;;;5073397;28;917;-73
2021/01/19 13:02:25;;;;;;;;;;;;;;;;;;5074725;28;849;-70
2021/01/19 13:04:50;;;;;;;;;;;;;;;;;;5074625;28;1282;-71
2021/01/19 13:07:15;;;;;;;;;;;;;;;;;;5074640;28;829;-73
2021/01/19 13:09:41;;;;;;;;;;;;;;;;;;5074421;28;884;-74
2021/01/19 13:12:09;;;;;;;;;;;;;;;;;;5074590;28;1141;-73
2021/01/19 13:14:34;;;;;;;;;;;;;;;;;;5074346;28;1329;-73
2021/01/19 13:16:59;;;;;;;;;;;;;;;;;;5074259;28;1901;-72
2021/01/19 13:19:25;;;;;;;;;;;;;;;;;;5073217;28;769;-71
2021/01/19 13:21:50;;;;;;;;;;;;;;;;;;5074338;28;865;-71
2021/01/19 13:24:15;;;;;;;;;;;;;;;;;;5062614;28;1671;-74
2021/01/19 13:26:41;;;;;;;;;;;;;;;;;;5054372;28;1370;-71
2021/01/19 13:29:06;;;;;;;;;;;;;;;;;;5053362;28;1121;-71
2021/01/19 13:31:32;;;;;;;;;;;;;;;;;;5052780;28;1260;-71
2021/01/19 13:33:57;;;;;;;;;;;;;;;;;;5054011;28;798;-73
2021/01/19 13:36:22;;;;;;;;;;;;;;;;;;5054176;28;1955;-74
2021/01/19 13:38:48;;;;;;;;;;;;;;;;;;5054274;28;805;-73
2021/01/19 13:41:16;;;;;;;;;;;;;;;;;;5055113;28;794;-71
2021/01/19 13:43:42;;;;;;;;;;;;;;;;;;5058197;28;890;-73
2021/01/19 13:46:07;;;;;;;;;;;;;;;;;;5056576;28;1454;-71
2021/01/19 13:48:32;;;;;;;;;;;;;;;;;;5057994;28;1008;-73
2021/01/19 13:50:58;;;;;;;;;;;;;;;;;;5057987;28;889;-74
2021/01/19 13:53:23;;;;;;;;;;;;;;;;;;5057111;28;1599;-71
2021/01/19 13:55:48;;;;;;;;;;;;;;;;;;5068580;28;1637;-73
2021/01/19 13:58:14;;;;;;;;;;;;;;;;;;5068112;28;1894;-72
2021/01/19 14:00:39;;;;;;;;;;;;;;;;;;5069364;28;1493;-73
2021/01/19 14:03:06;;;;;;;;;;;;;;;;;;5065728;28;1463;-72
2021/01/19 14:05:31;;;;;;;;;;;;;;;;;;5056731;28;1563;-74
2021/01/19 14:07:56;;;;;;;;;;;;;;;;;;5056464;28;1623;-73
2021/01/19 14:10:21;;;;;;;;;;;;;;;;;;5057654;28;868;-73
2021/01/19 14:12:47;;;;;;;;;;;;;;;;;;5057720;28;940;-71
2021/01/19 14:15:12;;;;;;;;;;;;;;;;;;5057619;28;1304;-73
2021/01/19 14:17:38;;;;;;;;;;;;;;;;;;5056000;28;1902;-73
2021/01/19 14:20:05;;;;;;;;;;;;;;;;;;5056028;28;900;-72
2021/01/19 14:22:30;;;;;;;;;;;;;;;;;;5057521;28;892;-72
2021/01/19 14:24:56;;;;;;;;;;;;;;;;;;5055894;28;1680;-74
2021/01/19 14:27:22;;;;;;;;;;;;;;;;;;5056016;28;1234;-74
2021/01/19 14:29:47;;;;;;;;;;;;;;;;;;5055952;28;1186;-71
2021/01/19 14:32:12;;;;;;;;;;;;;;;;;;5056509;28;1222;-73
2021/01/19 14:34:38;;;;;;;;;;;;;;;;;;5057080;28;1338;-74
2021/01/19 14:37:03;;;;;;;;;;;;;;;;;;5057115;28;1886;-73
2021/01/19 14:39:28;;;;;;;;;;;;;;;;;;5055771;28;1283;-73
2021/01/19 14:41:53;;;;;;;;;;;;;;;;;;5057081;28;865;-74
2021/01/19 14:44:19;;;;;;;;;;;;;;;;;;5065764;28;1736;-73
2021/01/19 14:46:45;;;;;;;;;;;;;;;;;;5057131;28;1412;-73
2021/01/19 14:49:10;;;;;;;;;;;;;;;;;;5057224;28;872;-72
2021/01/19 14:51:37;;;;;;;;;;;;;;;;;;5056443;28;1122;-73
2021/01/19 14:54:03;;;;;;;;;;;;;;;;;;5055514;28;1051;-72
2021/01/19 14:56:32;;;;;;;;;;;;;;;;;;5056780;28;1889;-73
2021/01/19 14:58:58;;;;;;;;;;;;;;;;;;5056918;28;864;-73
2021/01/19 15:01:33;;;;;;;;;;;;;;;;;;5055512;28;1312;-71
2021/01/19 15:03:59;;;;;;;;;;;;;;;;;;5056881;28;806;-72
2021/01/19 15:06:24;;;;;;;;;;;;;;;;;;5055329;28;1412;-71
2021/01/19 15:08:49;;;;;;;;;;;;;;;;;;5056601;28;893;-71
2021/01/19 15:11:15;;;;;;;;;;;;;;;;;;5055432;28;1766;-73
2021/01/19 15:13:47;;;;;;;;;;;;;;;;;;5055188;28;1575;-72
2021/01/19 15:16:12;;;;;;;;;;;;;;;;;;5054880;28;1894;-72
2021/01/19 15:18:37;;;;;;;;;;;;;;;;;;5056526;28;813;-71
2021/01/19 15:21:02;;;;;;;;;;;;;;;;;;5056154;28;838;-72
2021/01/19 15:23:28;;;;;;;;;;;;;;;;;;5056470;28;801;-74
2021/01/19 15:25:53;;;;;;;;;;;;;;;;;;5056152;28;1330;-71
2021/01/19 15:28:18;;;;;;;;;;;;;;;;;;5056352;28;1016;-72
2021/01/19 15:30:43;;;;;;;;;;;;;;;;;;5056073;28;801;-72
2021/01/19 15:33:09;;;;;;;;;;;;;;;;;;5055028;28;1571;-73
2021/01/19 15:35:34;;;;;;;;;;;;;;;;;;5056063;28;1357;-73
2021/01/19 15:37:59;;;;;;;;;;;;;;;;;;5055997;28;1957;-73
2021/01/19 15:40:25;;;;;;;;;;;;;;;;;;5055855;28;980;-73
2021/01/19 15:42:51;;;;;;;;;;;;;;;;;;5054753;28;908;-72
2021/01/19 15:45:16;;;;;;;;;;;;;;;;;;5055553;28;1349;-73
2021/01/19 15:47:41;;;;;;;;;;;;;;;;;;5055992;28;903;-71
2021/01/19 15:50:08;;;;;;;;;;;;;;;;;;5055939;28;790;-72
2021/01/19 15:52:33;;;;;;;;;;;;;;;;;;5055887;28;903;-71
2021/01/19 15:54:59;;;;;;;;;;;;;;;;;;5054269;28;1334;-72
2021/01/19 15:57:26;;;;;;;;;;;;;;;;;;5054337;28;1898;-71
2021/01/19 15:59:51;;;;;;;;;;;;;;;;;;5055571;28;832;-74
2021/01/19 16:02:16;;;;;;;;;;;;;;;;;;5055559;28;901;-74
2021/01/19 16:04:41;;;;;;;;;;;;;;;;;;5054539;28;1282;-73
2021/01/19 16:07:07;;;;;;;;;;;;;;;;;;5055457;28;909;-74
2021/01/19 16:09:32;;;;;;;;;;;;;;;;;;5055288;28;872;-73
2021/01/19 16:11:58;;;;;;;;;;;;;;;;;;5053951;28;1182;-73
2021/01/19 16:14:23;;;;;;;;;;;;;;;;;;5055357;28;927;-74
2021/01/19 16:16:52;;;;;;;;;;;;;;;;;;5056726;28;1967;-75
2021/01/19 16:19:18;;;;;;;;;;;;;;;;;;5073823;28;1226;-74
2021/01/19 16:21:43;;;;;;;;;;;;;;;;;;5075094;28;880;-75
2021/01/19 16:24:09;;;;;;;;;;;;;;;;;;5075094;28;876;-75
2021/01/19 16:26:34;;;;;;;;;;;;;;;;;;5074873;28;1397;-74
2021/01/19 16:29:00;;;;;;;;;;;;;;;;;;5075463;28;801;-74
2021/01/19 16:31:27;;;;;;;;;;;;;;;;;;5073586;28;1167;-74
2021/01/19 16:33:52;;;;;;;;;;;;;;;;;;5073504;28;1230;-74
2021/01/19 16:36:25;;;;;;;;;;;;;;;;;;5074938;28;1951;-74
2021/01/19 16:38:50;;;;;;;;;;;;;;;;;;5074849;28;845;-74
2021/01/19 16:41:15;;;;;;;;;;;;;;;;;;5073798;28;1127;-74
2021/01/19 16:43:41;;;;;;;;;;;;;;;;;;5075067;28;797;-74
2021/01/19 16:46:06;;;;;;;;;;;;;;;;;;5074574;28;1330;-74
2021/01/19 16:48:31;;;;;;;;;;;;;;;;;;5073871;28;1118;-74
2021/01/19 16:50:57;;;;;;;;;;;;;;;;;;5074638;28;939;-74
2021/01/19 16:53:24;;;;;;;;;;;;;;;;;;5074569;28;1068;-74
2021/01/19 16:55:49;;;;;;;;;;;;;;;;;;5074394;28;1298;-74
2021/01/19 16:58:15;;;;;;;;;;;;;;;;;;5072827;28;1952;-74
2021/01/19 17:00:41;;;;;;;;;;;;;;;;;;5074173;28;759;-73
2021/01/19 17:03:06;;;;;;;;;;;;;;;;;;5072716;28;1318;-74
2021/01/19 17:05:34;;;;;;;;;;;;;;;;;;5074004;28;1380;-74
2021/01/19 17:07:59;;;;;;;;;;;;;;;;;;5072382;28;1697;-73
2021/01/19 17:10:24;;;;;;;;;;;;;;;;;;5073745;28;916;-74